sensor_id;sensor_type;location;lat;lon;timestamp;pressure;altitude;pressure_sealevel;temperature;humidity
41830;BME280;38614;43.472;23.936;2022-08-19T00:01:45;99650.72;;;23.29;nan
41830;BME280;38614;43.472;23.936;2022-08-19T00:07:27;99658.84;;;23.27;nan
41830;BME280;38614;43.472;23.936;2022-08-19T00:10:16;99656.28;;;23.20;nan
41830;BME280;38614;43.472;23.936;2022-08-19T00:13:04;99652.34;;;23.18;nan
41830;BME280;38614;43.472;23.936;2022-08-19T00:15:52;99651.03;;;23.10;nan
41830;BME280;38614;43.472;23.936;2022-08-19T00:18:40;99650.69;;;23.08;nan
41830;BME280;38614;43.472;23.936;2022-08-19T00:21:27;99662.16;;;23.13;nan
41830;BME280;38614;43.472;23.936;2022-08-19T00:24:15;99633.44;;;23.06;nan
41830;BME280;38614;43.472;23.936;2022-08-19T00:27:03;99657.78;;;23.12;nan
41830;BME280;38614;43.472;23.936;2022-08-19T00:30:11;99639.25;;;22.89;nan
41830;BME280;38614;43.472;23.936;2022-08-19T00:32:59;99664.03;;;22.94;nan
41830;BME280;38614;43.472;23.936;2022-08-19T00:35:47;99659.19;;;22.82;nan
41830;BME280;38614;43.472;23.936;2022-08-19T00:38:42;99640.16;;;22.86;nan
41830;BME280;38614;43.472;23.936;2022-08-19T00:41:30;99623.66;;;22.63;nan
41830;BME280;38614;43.472;23.936;2022-08-19T00:47:13;99655.38;;;22.76;nan
41830;BME280;38614;43.472;23.936;2022-08-19T00:52:50;99646.03;;;22.66;nan
41830;BME280;38614;43.472;23.936;2022-08-19T00:55:39;99634.31;;;22.68;nan
41830;BME280;38614;43.472;23.936;2022-08-19T00:58:30;99628.81;;;22.52;nan
41830;BME280;38614;43.472;23.936;2022-08-19T01:01:19;99646.88;;;22.54;nan
41830;BME280;38614;43.472;23.936;2022-08-19T01:04:07;99647.31;;;22.53;nan
41830;BME280;38614;43.472;23.936;2022-08-19T01:06:56;99642.91;;;22.52;nan
41830;BME280;38614;43.472;23.936;2022-08-19T01:12:32;99634.63;;;22.35;nan
41830;BME280;38614;43.472;23.936;2022-08-19T01:15:25;99656.00;;;22.33;nan
41830;BME280;38614;43.472;23.936;2022-08-19T01:18:17;99651.16;;;22.33;nan
41830;BME280;38614;43.472;23.936;2022-08-19T01:21:11;99645.06;;;22.22;nan
41830;BME280;38614;43.472;23.936;2022-08-19T01:24:04;99658.25;;;22.25;nan
41830;BME280;38614;43.472;23.936;2022-08-19T01:26:51;99666.59;;;22.16;nan
41830;BME280;38614;43.472;23.936;2022-08-19T01:29:42;99654.63;;;21.99;nan
41830;BME280;38614;43.472;23.936;2022-08-19T01:32:30;99651.34;;;22.01;nan
41830;BME280;38614;43.472;23.936;2022-08-19T01:35:20;99656.31;;;21.97;nan
41830;BME280;38614;43.472;23.936;2022-08-19T01:38:24;99658.25;;;22.12;nan
41830;BME280;38614;43.472;23.936;2022-08-19T01:41:12;99648.88;;;22.03;nan
41830;BME280;38614;43.472;23.936;2022-08-19T01:44:00;99658.38;;;22.09;nan
41830;BME280;38614;43.472;23.936;2022-08-19T01:47:05;99662.31;;;22.11;nan
41830;BME280;38614;43.472;23.936;2022-08-19T01:49:53;99663.06;;;21.99;nan
41830;BME280;38614;43.472;23.936;2022-08-19T01:52:43;99665.88;;;21.99;nan
41830;BME280;38614;43.472;23.936;2022-08-19T01:55:31;99640.41;;;21.77;nan
41830;BME280;38614;43.472;23.936;2022-08-19T01:58:23;99664.91;;;21.77;nan
41830;BME280;38614;43.472;23.936;2022-08-19T02:01:12;99663.91;;;21.71;nan
41830;BME280;38614;43.472;23.936;2022-08-19T02:04:01;99657.84;;;21.72;nan
41830;BME280;38614;43.472;23.936;2022-08-19T02:06:49;99664.38;;;21.69;nan
41830;BME280;38614;43.472;23.936;2022-08-19T02:09:37;99667.56;;;21.55;nan
41830;BME280;38614;43.472;23.936;2022-08-19T02:12:25;99674.25;;;21.61;nan
41830;BME280;38614;43.472;23.936;2022-08-19T02:15:13;99670.06;;;21.53;nan
41830;BME280;38614;43.472;23.936;2022-08-19T02:18:01;99649.59;;;21.52;nan
41830;BME280;38614;43.472;23.936;2022-08-19T02:20:49;99683.53;;;21.58;nan
41830;BME280;38614;43.472;23.936;2022-08-19T02:23:36;99685.03;;;21.62;nan
41830;BME280;38614;43.472;23.936;2022-08-19T02:26:24;99677.59;;;21.56;nan
41830;BME280;38614;43.472;23.936;2022-08-19T02:29:13;99675.28;;;21.38;nan
41830;BME280;38614;43.472;23.936;2022-08-19T02:32:01;99682.72;;;21.45;nan
41830;BME280;38614;43.472;23.936;2022-08-19T02:34:51;99658.59;;;21.31;nan
41830;BME280;38614;43.472;23.936;2022-08-19T02:37:41;99674.81;;;21.40;nan
41830;BME280;38614;43.472;23.936;2022-08-19T02:40:51;99674.94;;;21.36;nan
41830;BME280;38614;43.472;23.936;2022-08-19T02:43:40;99672.75;;;21.27;nan
41830;BME280;38614;43.472;23.936;2022-08-19T02:46:48;99694.00;;;21.28;nan
41830;BME280;38614;43.472;23.936;2022-08-19T02:49:37;99667.59;;;21.10;nan
41830;BME280;38614;43.472;23.936;2022-08-19T02:52:25;99696.03;;;21.28;nan
41830;BME280;38614;43.472;23.936;2022-08-19T02:55:14;99684.94;;;21.37;nan
41830;BME280;38614;43.472;23.936;2022-08-19T02:58:02;99672.94;;;21.20;nan
41830;BME280;38614;43.472;23.936;2022-08-19T03:00:53;99677.16;;;21.12;nan
41830;BME280;38614;43.472;23.936;2022-08-19T03:03:41;99695.84;;;21.19;nan
41830;BME280;38614;43.472;23.936;2022-08-19T03:06:30;99688.59;;;21.05;nan
41830;BME280;38614;43.472;23.936;2022-08-19T03:09:19;99682.81;;;20.96;nan
41830;BME280;38614;43.472;23.936;2022-08-19T03:12:09;99676.69;;;20.85;nan
41830;BME280;38614;43.472;23.936;2022-08-19T03:14:56;99695.63;;;20.81;nan
41830;BME280;38614;43.472;23.936;2022-08-19T03:17:45;99708.28;;;20.89;nan
41830;BME280;38614;43.472;23.936;2022-08-19T03:20:33;99707.50;;;20.88;nan
41830;BME280;38614;43.472;23.936;2022-08-19T03:23:22;99703.38;;;20.76;nan
41830;BME280;38614;43.472;23.936;2022-08-19T03:26:11;99709.94;;;20.86;nan
41830;BME280;38614;43.472;23.936;2022-08-19T03:29:04;99714.59;;;20.76;nan
41830;BME280;38614;43.472;23.936;2022-08-19T03:31:52;99709.78;;;20.61;nan
41830;BME280;38614;43.472;23.936;2022-08-19T03:34:41;99712.59;;;20.61;nan
41830;BME280;38614;43.472;23.936;2022-08-19T03:37:32;99721.19;;;20.70;nan
41830;BME280;38614;43.472;23.936;2022-08-19T03:40:20;99721.97;;;20.70;nan
41830;BME280;38614;43.472;23.936;2022-08-19T03:43:12;99724.94;;;20.63;nan
41830;BME280;38614;43.472;23.936;2022-08-19T03:46:09;99725.72;;;20.64;nan
41830;BME280;38614;43.472;23.936;2022-08-19T03:48:59;99714.06;;;20.65;nan
41830;BME280;38614;43.472;23.936;2022-08-19T03:51:49;99733.53;;;20.72;nan
41830;BME280;38614;43.472;23.936;2022-08-19T03:54:39;99740.56;;;20.81;nan
41830;BME280;38614;43.472;23.936;2022-08-19T03:57:27;99732.94;;;20.81;nan
41830;BME280;38614;43.472;23.936;2022-08-19T04:00:18;99750.22;;;20.80;nan
41830;BME280;38614;43.472;23.936;2022-08-19T04:03:06;99737.41;;;20.78;nan
41830;BME280;38614;43.472;23.936;2022-08-19T04:05:53;99759.88;;;20.78;nan
41830;BME280;38614;43.472;23.936;2022-08-19T04:08:44;99752.94;;;20.83;nan
41830;BME280;38614;43.472;23.936;2022-08-19T04:11:38;99749.88;;;20.77;nan
41830;BME280;38614;43.472;23.936;2022-08-19T04:14:31;99754.94;;;20.83;nan
41830;BME280;38614;43.472;23.936;2022-08-19T04:17:19;99761.09;;;20.94;nan
41830;BME280;38614;43.472;23.936;2022-08-19T04:23:14;99753.66;;;20.87;nan
41830;BME280;38614;43.472;23.936;2022-08-19T04:26:02;99757.09;;;20.95;nan
41830;BME280;38614;43.472;23.936;2022-08-19T04:28:50;99769.69;;;21.03;nan
41830;BME280;38614;43.472;23.936;2022-08-19T04:34:28;99770.59;;;21.16;nan
41830;BME280;38614;43.472;23.936;2022-08-19T04:37:19;99776.03;;;21.23;nan
41830;BME280;38614;43.472;23.936;2022-08-19T04:40:10;99769.81;;;21.32;nan
41830;BME280;38614;43.472;23.936;2022-08-19T04:43:16;99766.59;;;21.46;nan
41830;BME280;38614;43.472;23.936;2022-08-19T04:46:09;99762.63;;;21.60;nan
41830;BME280;38614;43.472;23.936;2022-08-19T04:52:09;99754.38;;;22.11;nan
41830;BME280;38614;43.472;23.936;2022-08-19T04:54:58;99713.84;;;22.08;nan
41830;BME280;38614;43.472;23.936;2022-08-19T04:57:46;99758.25;;;22.55;nan
41830;BME280;38614;43.472;23.936;2022-08-19T05:00:38;99699.44;;;22.32;nan
41830;BME280;38614;43.472;23.936;2022-08-19T05:03:27;99758.16;;;22.84;nan
41830;BME280;38614;43.472;23.936;2022-08-19T05:06:20;99753.03;;;23.04;nan
41830;BME280;38614;43.472;23.936;2022-08-19T05:09:08;99744.53;;;23.30;nan
41830;BME280;38614;43.472;23.936;2022-08-19T05:11:56;99753.78;;;23.65;nan
41830;BME280;38614;43.472;23.936;2022-08-19T05:14:47;99764.41;;;24.05;nan
41830;BME280;38614;43.472;23.936;2022-08-19T05:17:40;99749.00;;;24.28;nan
41830;BME280;38614;43.472;23.936;2022-08-19T05:20:48;99767.44;;;24.32;nan
41830;BME280;38614;43.472;23.936;2022-08-19T05:23:54;99768.81;;;24.59;nan
41830;BME280;38614;43.472;23.936;2022-08-19T05:27:09;99772.66;;;24.83;nan
41830;BME280;38614;43.472;23.936;2022-08-19T05:30:09;99771.38;;;25.15;nan
41830;BME280;38614;43.472;23.936;2022-08-19T05:32:57;99771.13;;;25.41;nan
41830;BME280;38614;43.472;23.936;2022-08-19T05:36:06;99785.25;;;25.68;nan
41830;BME280;38614;43.472;23.936;2022-08-19T05:39:13;99785.09;;;25.63;nan
41830;BME280;38614;43.472;23.936;2022-08-19T05:42:05;99789.34;;;26.04;nan
41830;BME280;38614;43.472;23.936;2022-08-19T05:44:58;99781.13;;;26.24;nan
41830;BME280;38614;43.472;23.936;2022-08-19T05:47:47;99789.22;;;26.68;nan
41830;BME280;38614;43.472;23.936;2022-08-19T05:50:36;99773.47;;;26.67;nan
41830;BME280;38614;43.472;23.936;2022-08-19T05:53:25;99739.25;;;26.47;nan
41830;BME280;38614;43.472;23.936;2022-08-19T05:56:15;99765.84;;;27.15;nan
41830;BME280;38614;43.472;23.936;2022-08-19T05:59:08;99755.22;;;27.25;nan
41830;BME280;38614;43.472;23.936;2022-08-19T06:01:57;99781.22;;;27.47;nan
41830;BME280;38614;43.472;23.936;2022-08-19T06:04:44;99773.25;;;27.61;nan
41830;BME280;38614;43.472;23.936;2022-08-19T06:07:32;99777.56;;;27.95;nan
41830;BME280;38614;43.472;23.936;2022-08-19T06:10:21;99766.63;;;28.32;nan
41830;BME280;38614;43.472;23.936;2022-08-19T06:13:11;99748.38;;;28.38;nan
41830;BME280;38614;43.472;23.936;2022-08-19T06:15:59;99779.50;;;28.77;nan
41830;BME280;38614;43.472;23.936;2022-08-19T06:18:48;99789.47;;;29.02;nan
41830;BME280;38614;43.472;23.936;2022-08-19T06:21:39;99782.34;;;29.12;nan
41830;BME280;38614;43.472;23.936;2022-08-19T06:24:30;99784.75;;;29.34;nan
41830;BME280;38614;43.472;23.936;2022-08-19T06:27:20;99797.50;;;29.59;nan
41830;BME280;38614;43.472;23.936;2022-08-19T06:30:11;99801.78;;;29.95;nan
41830;BME280;38614;43.472;23.936;2022-08-19T06:32:59;99795.97;;;29.84;nan
41830;BME280;38614;43.472;23.936;2022-08-19T06:35:47;99790.03;;;29.41;nan
41830;BME280;38614;43.472;23.936;2022-08-19T06:38:37;99806.72;;;29.95;nan
41830;BME280;38614;43.472;23.936;2022-08-19T06:41:29;99795.94;;;30.04;nan
41830;BME280;38614;43.472;23.936;2022-08-19T06:44:28;99797.31;;;30.35;nan
41830;BME280;38614;43.472;23.936;2022-08-19T06:47:19;99762.03;;;30.32;nan
41830;BME280;38614;43.472;23.936;2022-08-19T06:50:10;99794.50;;;30.41;nan
41830;BME280;38614;43.472;23.936;2022-08-19T06:52:58;99760.88;;;29.93;nan
41830;BME280;38614;43.472;23.936;2022-08-19T06:55:47;99789.06;;;30.69;nan
41830;BME280;38614;43.472;23.936;2022-08-19T06:58:35;99792.75;;;31.12;nan
41830;BME280;38614;43.472;23.936;2022-08-19T07:01:22;99781.47;;;30.97;nan
41830;BME280;38614;43.472;23.936;2022-08-19T07:04:10;99788.25;;;31.37;nan
41830;BME280;38614;43.472;23.936;2022-08-19T07:07:03;99778.47;;;31.60;nan
41830;BME280;38614;43.472;23.936;2022-08-19T07:10:06;99786.41;;;32.04;nan
41830;BME280;38614;43.472;23.936;2022-08-19T07:12:54;99788.22;;;32.02;nan
41830;BME280;38614;43.472;23.936;2022-08-19T07:15:42;99794.06;;;31.65;nan
41830;BME280;38614;43.472;23.936;2022-08-19T07:18:29;99796.72;;;31.26;nan
41830;BME280;38614;43.472;23.936;2022-08-19T07:21:25;99770.59;;;31.38;nan
41830;BME280;38614;43.472;23.936;2022-08-19T07:24:16;99782.66;;;31.65;nan
41830;BME280;38614;43.472;23.936;2022-08-19T07:27:05;99785.56;;;31.76;nan
41830;BME280;38614;43.472;23.936;2022-08-19T07:30:02;99792.41;;;32.18;nan
41830;BME280;38614;43.472;23.936;2022-08-19T07:32:50;99774.78;;;32.30;nan
41830;BME280;38614;43.472;23.936;2022-08-19T07:35:39;99768.53;;;32.71;nan
41830;BME280;38614;43.472;23.936;2022-08-19T20:15:34;99617.94;;;27.46;nan
41830;BME280;38614;43.472;23.936;2022-08-19T20:21:15;99630.25;;;27.58;nan
41830;BME280;38614;43.472;23.936;2022-08-19T20:26:56;99628.09;;;27.38;nan
41830;BME280;38614;43.472;23.936;2022-08-19T20:29:44;99642.78;;;27.37;nan
41830;BME280;38614;43.472;23.936;2022-08-19T20:32:33;99641.59;;;27.29;nan
41830;BME280;38614;43.472;23.936;2022-08-19T20:35:21;99612.66;;;27.01;nan
41830;BME280;38614;43.472;23.936;2022-08-19T20:38:09;99644.25;;;27.08;nan
41830;BME280;38614;43.472;23.936;2022-08-19T20:40:57;99654.22;;;27.04;nan
41830;BME280;38614;43.472;23.936;2022-08-19T20:46:33;99611.75;;;26.70;nan
41830;BME280;38614;43.472;23.936;2022-08-19T20:49:20;99628.28;;;26.72;nan
41830;BME280;38614;43.472;23.936;2022-08-19T20:52:16;99653.13;;;26.77;nan
41830;BME280;38614;43.472;23.936;2022-08-19T20:55:04;99657.91;;;26.71;nan
41830;BME280;38614;43.472;23.936;2022-08-19T20:57:52;99656.69;;;26.63;nan
41830;BME280;38614;43.472;23.936;2022-08-19T21:00:42;99656.38;;;26.61;nan
41830;BME280;38614;43.472;23.936;2022-08-19T21:06:29;99660.88;;;26.44;nan
41830;BME280;38614;43.472;23.936;2022-08-19T21:09:17;99636.19;;;26.35;nan
41830;BME280;38614;43.472;23.936;2022-08-19T21:12:06;99641.69;;;26.38;nan
41830;BME280;38614;43.472;23.936;2022-08-19T21:14:55;99645.81;;;26.28;nan
41830;BME280;38614;43.472;23.936;2022-08-19T21:17:43;99645.06;;;26.19;nan
41830;BME280;38614;43.472;23.936;2022-08-19T21:20:35;99650.25;;;26.20;nan
41830;BME280;38614;43.472;23.936;2022-08-19T21:23:27;99633.34;;;26.02;nan
41830;BME280;38614;43.472;23.936;2022-08-19T21:26:16;99626.72;;;26.05;nan
41830;BME280;38614;43.472;23.936;2022-08-19T21:29:03;99641.50;;;26.09;nan
41830;BME280;38614;43.472;23.936;2022-08-19T21:31:51;99634.44;;;25.95;nan
41830;BME280;38614;43.472;23.936;2022-08-19T21:34:39;99630.72;;;25.89;nan
41830;BME280;38614;43.472;23.936;2022-08-19T21:37:27;99601.81;;;25.76;nan
41830;BME280;38614;43.472;23.936;2022-08-19T21:40:16;99636.53;;;25.85;nan
41830;BME280;38614;43.472;23.936;2022-08-19T21:43:04;99615.16;;;25.66;nan
41830;BME280;38614;43.472;23.936;2022-08-19T21:45:52;99630.09;;;25.76;nan
41830;BME280;38614;43.472;23.936;2022-08-19T21:48:43;99630.09;;;25.76;nan
41830;BME280;38614;43.472;23.936;2022-08-19T21:51:31;99633.25;;;25.69;nan
41830;BME280;38614;43.472;23.936;2022-08-19T21:59:57;99621.97;;;25.50;nan
41830;BME280;38614;43.472;23.936;2022-08-19T22:02:44;99628.09;;;25.49;nan
41830;BME280;38614;43.472;23.936;2022-08-19T22:05:33;99625.59;;;25.51;nan
41830;BME280;38614;43.472;23.936;2022-08-19T22:08:21;99614.13;;;25.36;nan
41830;BME280;38614;43.472;23.936;2022-08-19T22:11:09;99619.47;;;25.43;nan
41830;BME280;38614;43.472;23.936;2022-08-19T22:13:58;99622.44;;;25.40;nan
41830;BME280;38614;43.472;23.936;2022-08-19T22:16:46;99619.19;;;25.32;nan
41830;BME280;38614;43.472;23.936;2022-08-19T22:19:33;99609.44;;;25.15;nan
41830;BME280;38614;43.472;23.936;2022-08-19T22:22:31;99611.03;;;25.16;nan
41830;BME280;38614;43.472;23.936;2022-08-19T22:25:25;99601.56;;;25.00;nan
41830;BME280;38614;43.472;23.936;2022-08-19T22:28:17;99614.78;;;25.13;nan
41830;BME280;38614;43.472;23.936;2022-08-19T22:31:14;99619.03;;;25.08;nan
41830;BME280;38614;43.472;23.936;2022-08-19T22:34:03;99618.41;;;25.04;nan
41830;BME280;38614;43.472;23.936;2022-08-19T22:36:51;99605.16;;;24.92;nan
41830;BME280;38614;43.472;23.936;2022-08-19T22:39:39;99607.38;;;24.97;nan
41830;BME280;38614;43.472;23.936;2022-08-19T22:42:26;99608.31;;;24.94;nan
41830;BME280;38614;43.472;23.936;2022-08-19T22:45:16;99588.06;;;24.77;nan
41830;BME280;38614;43.472;23.936;2022-08-19T22:48:06;99603.75;;;24.87;nan
41830;BME280;38614;43.472;23.936;2022-08-19T22:50:57;99606.41;;;24.82;nan
41830;BME280;38614;43.472;23.936;2022-08-19T22:54:03;99574.06;;;24.64;nan
41830;BME280;38614;43.472;23.936;2022-08-19T22:56:51;99599.50;;;24.73;nan
41830;BME280;38614;43.472;23.936;2022-08-19T22:59:39;99604.06;;;24.71;nan
41830;BME280;38614;43.472;23.936;2022-08-19T23:02:35;99600.28;;;24.65;nan
41830;BME280;38614;43.472;23.936;2022-08-19T23:05:41;99522.53;;;24.24;nan
41830;BME280;38614;43.472;23.936;2022-08-19T23:09:08;99533.19;;;24.29;nan
41830;BME280;38614;43.472;23.936;2022-08-19T23:11:56;99581.44;;;24.62;nan
41830;BME280;38614;43.472;23.936;2022-08-19T23:14:45;99588.81;;;24.59;nan
41830;BME280;38614;43.472;23.936;2022-08-19T23:17:33;99574.38;;;24.48;nan
41830;BME280;38614;43.472;23.936;2022-08-19T23:20:23;99571.38;;;24.52;nan
41830;BME280;38614;43.472;23.936;2022-08-19T23:23:15;99567.78;;;24.42;nan
41830;BME280;38614;43.472;23.936;2022-08-19T23:26:07;99576.56;;;24.53;nan
41830;BME280;38614;43.472;23.936;2022-08-19T23:28:58;99536.81;;;24.29;nan
41830;BME280;38614;43.472;23.936;2022-08-19T23:32:05;99557.09;;;24.46;nan
41830;BME280;38614;43.472;23.936;2022-08-19T23:34:54;99568.56;;;24.52;nan
41830;BME280;38614;43.472;23.936;2022-08-19T23:37:42;99563.69;;;24.52;nan
41830;BME280;38614;43.472;23.936;2022-08-19T23:40:34;99562.28;;;24.48;nan
41830;BME280;38614;43.472;23.936;2022-08-19T23:43:23;99557.75;;;24.50;nan
41830;BME280;38614;43.472;23.936;2022-08-19T23:46:16;99562.75;;;24.46;nan
41830;BME280;38614;43.472;23.936;2022-08-19T23:49:13;99561.19;;;24.45;nan
41830;BME280;38614;43.472;23.936;2022-08-19T23:52:02;99572.47;;;24.45;nan
41830;BME280;38614;43.472;23.936;2022-08-19T23:54:50;99563.09;;;24.48;nan
41830;BME280;38614;43.472;23.936;2022-08-19T23:57:37;99562.44;;;24.53;nan
